createdAt,value
2023-03-02T00:00:16.463Z,5.50
2023-03-02T00:02:47.298Z,5.60
2023-03-02T00:05:14.468Z,5.60
2023-03-02T00:07:41.458Z,5.70
2023-03-02T00:10:09.277Z,5.60
2023-03-02T00:12:36.280Z,5.70
2023-03-02T00:15:05.746Z,6.10
2023-03-02T00:17:32.835Z,5.70
2023-03-02T00:20:11.741Z,5.80
2023-03-02T00:22:40.868Z,5.80
2023-03-02T00:25:09.201Z,5.80
2023-03-02T00:27:36.358Z,5.70
2023-03-02T00:30:03.676Z,5.60
2023-03-02T00:32:30.736Z,5.60
2023-03-02T00:34:58.431Z,5.70
2023-03-02T00:37:28.263Z,5.80
2023-03-02T00:39:55.137Z,5.80
2023-03-02T00:42:22.670Z,5.60
2023-03-02T00:44:49.632Z,5.70
2023-03-02T00:47:17.453Z,5.80
2023-03-02T00:49:49.398Z,5.90
2023-03-02T00:52:17.370Z,5.60
2023-03-02T00:54:44.295Z,5.80
2023-03-02T00:57:11.531Z,5.70
2023-03-02T00:59:39.697Z,5.80
2023-03-02T01:02:29.419Z,5.90
2023-03-02T01:04:56.865Z,5.80
2023-03-02T01:07:28.589Z,5.80
2023-03-02T01:09:55.716Z,5.80
2023-03-02T01:12:22.983Z,5.90
2023-03-02T01:14:50.940Z,5.80
2023-03-02T01:17:19.519Z,5.90
2023-03-02T01:19:46.795Z,5.90
2023-03-02T01:22:14.094Z,6.10
2023-03-02T01:24:41.046Z,5.90
2023-03-02T01:27:09.367Z,5.90
2023-03-02T01:29:36.826Z,6.10
2023-03-02T01:32:04.965Z,5.80
2023-03-02T01:34:32.176Z,5.90
2023-03-02T01:36:59.633Z,5.90
2023-03-02T01:39:26.571Z,5.90
2023-03-02T01:41:53.571Z,5.90
2023-03-02T01:45:06.710Z,5.90
2023-03-02T01:47:53.721Z,5.90
2023-03-02T01:50:31.283Z,5.90
2023-03-02T01:52:59.727Z,5.80
2023-03-02T01:55:36.014Z,5.90
2023-03-02T01:58:05.437Z,5.90
2023-03-02T02:00:38.115Z,6.20
2023-03-02T02:03:12.760Z,5.90
2023-03-02T02:05:42.974Z,5.90
2023-03-02T02:08:10.543Z,5.60
2023-03-02T02:10:39.611Z,5.90
2023-03-02T02:13:17.607Z,5.90
2023-03-02T02:15:44.620Z,5.90
2023-03-02T02:21:15.614Z,5.90
2023-03-02T02:24:04.209Z,5.70
2023-03-02T02:26:43.932Z,6.00
2023-03-02T02:29:22.887Z,6.00
2023-03-02T06:18:15.558Z,5.80
2023-03-02T06:20:42.630Z,6.10
2023-03-02T06:35:36.726Z,5.40
2023-03-02T06:38:03.855Z,5.80
2023-03-02T06:40:31.513Z,6.20
2023-03-02T06:46:00.897Z,5.90
2023-03-02T06:55:32.822Z,6.00
2023-03-02T06:58:00.061Z,6.00
2023-03-02T07:03:29.637Z,6.10
2023-03-02T07:12:25.204Z,6.10
2023-03-02T07:18:05.827Z,6.10
2023-03-02T07:20:34.961Z,6.10
2023-03-02T07:23:02.170Z,6.20
2023-03-02T07:25:29.365Z,6.00
2023-03-02T07:27:56.312Z,6.20
2023-03-02T07:30:23.363Z,6.50
2023-03-02T07:32:51.162Z,6.20
2023-03-02T07:35:18.501Z,6.30
2023-03-02T07:37:45.720Z,6.40
2023-03-02T07:40:13.605Z,6.40
2023-03-02T07:42:41.283Z,6.40
2023-03-02T07:45:08.874Z,6.50
2023-03-02T07:47:35.849Z,6.50
2023-03-02T07:50:03.205Z,6.40
2023-03-02T07:52:31.084Z,6.40
2023-03-02T07:54:58.429Z,6.40
2023-03-02T07:57:31.485Z,6.50
2023-03-02T07:59:59.724Z,6.50
2023-03-02T08:02:26.850Z,6.50
2023-03-02T08:04:53.958Z,6.50
2023-03-02T08:07:21.067Z,6.60
2023-03-02T08:09:48.093Z,6.60
2023-03-02T08:12:15.050Z,6.60
2023-03-02T08:14:42.701Z,6.70
2023-03-02T08:17:09.876Z,6.70
2023-03-02T08:19:36.875Z,6.70
2023-03-02T08:22:04.235Z,6.70
2023-03-02T08:24:31.416Z,6.80
2023-03-02T08:27:15.485Z,6.80
2023-03-02T08:29:42.794Z,6.70
2023-03-02T08:32:09.897Z,7.30
2023-03-02T08:34:37.128Z,6.90
2023-03-02T08:37:04.214Z,6.90
2023-03-02T08:39:32.224Z,6.90
2023-03-02T08:41:59.377Z,7.40
2023-03-02T08:44:26.378Z,7.00
2023-03-02T08:46:53.323Z,7.10
2023-03-02T08:49:20.261Z,7.40
2023-03-02T08:51:49.081Z,7.10
2023-03-02T08:54:16.359Z,7.10
2023-03-02T08:56:44.442Z,7.20
2023-03-02T08:59:13.683Z,7.20
2023-03-02T09:01:41.785Z,7.20
2023-03-02T09:04:10.582Z,7.20
2023-03-02T09:06:40.754Z,7.20
2023-03-02T09:09:09.107Z,7.30
2023-03-02T09:11:36.227Z,7.30
2023-03-02T09:14:04.304Z,7.30
2023-03-02T09:16:31.871Z,7.30
2023-03-02T09:18:58.890Z,7.30
2023-03-02T09:21:26.357Z,7.70
2023-03-02T09:23:55.913Z,7.70
2023-03-02T09:26:23.707Z,7.30
2023-03-02T09:28:50.661Z,7.30
2023-03-02T09:31:17.570Z,7.30
2023-03-02T09:33:45.038Z,7.40
2023-03-02T09:36:18.230Z,7.30
2023-03-02T09:38:45.114Z,7.40
2023-03-02T09:41:21.129Z,7.40
2023-03-02T09:44:06.612Z,7.40
2023-03-02T09:46:50.455Z,7.50
2023-03-02T09:49:26.001Z,7.50
2023-03-02T09:52:21.074Z,7.80
2023-03-02T09:54:48.558Z,7.50
2023-03-02T09:57:29.118Z,7.60
2023-03-02T10:00:18.586Z,7.60
2023-03-02T10:02:56.227Z,7.70
2023-03-02T10:05:31.567Z,7.70
2023-03-02T10:07:59.440Z,7.70
2023-03-02T10:10:41.406Z,7.80
2023-03-02T10:13:44.639Z,7.80
2023-03-02T10:16:26.002Z,7.80
2023-03-02T10:19:07.821Z,7.80
2023-03-02T10:21:38.456Z,7.80
2023-03-02T10:24:20.443Z,7.90
2023-03-02T10:26:59.159Z,7.90
2023-03-02T10:29:35.078Z,7.90
2023-03-02T10:32:13.597Z,7.80
2023-03-02T10:34:40.702Z,7.90
2023-03-02T10:37:21.700Z,7.80
2023-03-02T10:39:49.662Z,8.00
2023-03-02T10:42:27.667Z,8.00
2023-03-02T10:45:01.716Z,8.00
2023-03-02T10:47:29.641Z,8.00
2023-03-02T10:49:58.260Z,8.00
2023-03-02T10:52:27.887Z,8.00
2023-03-02T10:55:14.612Z,8.00
2023-03-02T10:57:44.070Z,8.00
2023-03-02T11:00:18.788Z,8.00
2023-03-02T11:02:57.713Z,8.00
2023-03-02T11:05:32.025Z,7.90
2023-03-02T11:08:03.182Z,8.10
2023-03-02T11:10:37.718Z,8.00
2023-03-02T11:13:32.289Z,8.10
2023-03-02T11:16:02.147Z,8.10
2023-03-02T11:18:43.213Z,8.10
2023-03-02T11:21:17.227Z,8.50
2023-03-02T11:23:59.871Z,8.30
2023-03-02T11:26:40.505Z,8.30
2023-03-02T11:29:22.215Z,8.30
2023-03-02T11:31:53.490Z,8.30
2023-03-02T11:34:20.596Z,8.40
2023-03-02T11:37:14.978Z,8.50
2023-03-02T11:39:55.128Z,8.50
2023-03-02T11:42:28.730Z,8.50
2023-03-02T11:44:55.708Z,8.50
2023-03-02T11:47:23.080Z,8.50
2023-03-02T11:50:00.269Z,8.50
2023-03-02T11:52:30.167Z,8.50
2023-03-02T11:55:14.323Z,8.40
2023-03-02T11:57:48.636Z,8.60
2023-03-02T12:00:39.670Z,8.80
2023-03-02T12:03:06.924Z,8.70
2023-03-02T12:05:43.387Z,8.60
2023-03-02T12:12:25.497Z,8.60
2023-03-02T12:14:52.891Z,8.50
2023-03-02T12:17:24.820Z,8.50
2023-03-02T12:20:07.675Z,8.10
2023-03-02T12:22:36.096Z,8.40
2023-03-02T12:25:21.307Z,8.50
2023-03-02T12:27:50.599Z,8.40
2023-03-02T12:30:26.246Z,8.50
2023-03-02T12:33:11.408Z,8.50
2023-03-02T12:35:39.162Z,8.50
2023-03-02T12:38:14.508Z,8.50
2023-03-02T12:41:25.512Z,8.60
2023-03-02T12:44:04.623Z,8.60
2023-03-02T12:46:37.136Z,8.50
2023-03-02T12:49:05.539Z,8.50
2023-03-02T12:51:58.331Z,8.50
2023-03-02T12:54:30.598Z,8.50
2023-03-02T12:57:03.627Z,8.50
2023-03-02T12:59:30.533Z,8.60
2023-03-02T13:02:33.810Z,8.50
2023-03-02T13:05:03.985Z,8.50
2023-03-02T13:07:35.854Z,8.50
2023-03-02T13:10:09.405Z,8.50
2023-03-02T13:12:37.926Z,8.50
2023-03-02T13:15:15.681Z,8.50
2023-03-02T13:17:42.935Z,8.50
2023-03-02T13:20:13.231Z,8.50
2023-03-02T13:22:40.847Z,8.50
2023-03-02T13:25:30.986Z,8.50
2023-03-02T13:28:10.773Z,8.70
2023-03-02T13:30:43.557Z,8.50
2023-03-02T13:33:22.616Z,8.50
2023-03-02T13:35:49.948Z,8.50
2023-03-02T13:38:22.019Z,8.60
2023-03-02T13:40:51.669Z,8.60
2023-03-02T13:43:22.712Z,8.70
2023-03-02T13:45:55.791Z,8.70
2023-03-02T13:48:23.246Z,8.60
2023-03-02T13:51:03.459Z,8.70
2023-03-02T13:53:34.743Z,8.60
2023-03-02T13:56:02.848Z,8.70
2023-03-02T13:58:32.950Z,8.60
2023-03-02T14:01:00.031Z,8.60
2023-03-02T14:03:30.133Z,8.60
2023-03-02T14:05:59.114Z,8.60
2023-03-02T14:08:25.944Z,8.90
2023-03-02T14:10:54.986Z,8.60
2023-03-02T14:13:25.261Z,8.60
2023-03-02T14:15:53.554Z,8.60
2023-03-02T14:18:26.259Z,8.80
2023-03-02T14:20:53.269Z,8.60
2023-03-02T14:23:20.210Z,8.50
2023-03-02T14:25:47.202Z,8.60
2023-03-02T14:28:44.879Z,8.60
2023-03-02T14:31:13.024Z,8.60
2023-03-02T14:33:39.845Z,8.60
2023-03-02T14:36:07.140Z,8.60
2023-03-02T14:38:34.776Z,8.50
2023-03-02T14:41:01.622Z,8.50
2023-03-02T14:43:30.604Z,8.50
2023-03-02T14:45:57.518Z,8.50
2023-03-02T14:48:24.460Z,8.50
2023-03-02T14:50:51.865Z,8.50
2023-03-02T14:53:28.894Z,8.50
2023-03-02T14:55:55.841Z,8.50
2023-03-02T14:58:32.916Z,8.60
2023-03-02T15:01:00.908Z,8.50
2023-03-02T15:03:28.249Z,8.60
2023-03-02T15:06:01.569Z,8.60
2023-03-02T15:08:30.001Z,8.60
2023-03-02T15:10:57.034Z,8.60
2023-03-02T15:13:23.963Z,8.60
2023-03-02T15:15:52.718Z,8.60
2023-03-02T15:18:19.962Z,8.60
2023-03-02T15:20:47.106Z,8.50
2023-03-02T15:23:14.015Z,8.60
2023-03-02T15:25:40.947Z,8.50
2023-03-02T15:28:07.777Z,8.50
2023-03-02T15:30:34.689Z,8.50
2023-03-02T15:33:01.678Z,8.30
2023-03-02T15:35:29.353Z,8.50
2023-03-02T15:37:58.277Z,8.50
2023-03-02T15:40:25.810Z,8.40
2023-03-02T15:42:53.149Z,8.40
2023-03-02T15:45:20.233Z,8.50
2023-03-02T15:47:47.185Z,8.50
2023-03-02T15:50:14.157Z,8.40
2023-03-02T15:52:41.589Z,8.40
2023-03-02T15:55:09.156Z,8.50
2023-03-02T15:57:39.654Z,8.40
2023-03-02T16:00:07.664Z,8.40
2023-03-02T16:02:34.959Z,8.30
2023-03-02T16:05:01.995Z,8.40
2023-03-02T16:07:30.682Z,8.30
2023-03-02T16:09:57.666Z,8.40
2023-03-02T16:12:26.011Z,8.30
2023-03-02T16:14:53.008Z,8.30
2023-03-02T16:17:20.943Z,8.30
2023-03-02T16:19:47.844Z,8.30
2023-03-02T16:22:14.824Z,8.20
2023-03-02T16:24:42.054Z,8.30
2023-03-02T16:27:09.102Z,8.20
2023-03-02T16:29:36.146Z,8.30
2023-03-02T16:32:03.364Z,8.20
2023-03-02T16:34:30.366Z,8.20
2023-03-02T16:36:57.183Z,8.20
2023-03-02T16:39:24.592Z,8.20
2023-03-02T16:41:51.465Z,8.20
2023-03-02T16:44:19.054Z,8.20
2023-03-02T16:46:46.582Z,8.20
2023-03-02T16:49:13.870Z,8.20
2023-03-02T16:51:42.025Z,8.20
2023-03-02T16:54:09.106Z,8.20
2023-03-02T16:56:36.048Z,8.20
2023-03-02T16:59:03.103Z,8.10
2023-03-02T17:01:30.239Z,8.10
2023-03-02T17:03:57.321Z,8.10
2023-03-02T17:06:24.907Z,8.10
2023-03-02T17:08:51.874Z,8.00
2023-03-02T17:11:19.787Z,8.00
2023-03-02T17:13:47.183Z,8.00
2023-03-02T17:16:14.334Z,8.00
2023-03-02T17:18:41.415Z,8.10
2023-03-02T17:21:08.380Z,8.10
2023-03-02T17:23:37.074Z,8.00
2023-03-02T17:26:04.487Z,8.00
2023-03-02T17:28:31.572Z,8.00
2023-03-02T17:30:59.830Z,8.00
2023-03-02T17:33:29.520Z,8.00
2023-03-02T17:35:56.350Z,8.10
2023-03-02T17:38:23.546Z,8.00
2023-03-02T17:40:50.417Z,7.90
2023-03-02T17:43:17.336Z,7.90
2023-03-02T17:45:44.494Z,7.90
2023-03-02T17:48:11.352Z,7.80
2023-03-02T17:50:38.507Z,8.40
2023-03-02T17:53:05.376Z,8.00
2023-03-02T17:55:32.311Z,8.00
2023-03-02T17:57:59.300Z,8.00
2023-03-02T18:00:26.620Z,7.90
2023-03-02T18:02:54.110Z,7.90
2023-03-02T18:05:21.882Z,7.90
2023-03-02T18:07:48.999Z,8.00
2023-03-02T18:10:16.104Z,8.00
2023-03-02T18:12:43.115Z,7.90
2023-03-02T18:15:11.681Z,8.10
2023-03-02T18:17:39.031Z,8.00
2023-03-02T18:20:06.525Z,8.00
2023-03-02T18:22:33.642Z,8.00
2023-03-02T18:25:00.502Z,7.90
2023-03-02T18:27:27.444Z,8.00
2023-03-02T18:29:54.395Z,8.30
2023-03-02T18:32:21.540Z,8.00
2023-03-02T18:34:48.465Z,7.90
2023-03-02T18:37:15.514Z,8.00
2023-03-02T18:39:42.450Z,8.00
2023-03-02T18:42:11.590Z,8.00
2023-03-02T18:44:39.502Z,8.10
2023-03-02T18:47:07.570Z,8.00
2023-03-02T18:49:34.510Z,7.90
2023-03-02T18:52:05.786Z,7.90
2023-03-02T18:54:32.918Z,8.00
2023-03-02T18:57:01.550Z,7.90
2023-03-02T18:59:29.246Z,7.90
2023-03-02T19:01:57.382Z,7.90
2023-03-02T19:04:26.620Z,7.90
2023-03-02T19:06:56.173Z,7.90
2023-03-02T19:09:23.626Z,7.90
2023-03-02T19:11:50.550Z,7.90
2023-03-02T19:14:18.092Z,7.80
2023-03-02T19:16:45.706Z,7.80
2023-03-02T19:19:12.836Z,7.80
2023-03-02T19:21:39.995Z,7.90
2023-03-02T19:24:07.442Z,7.80
2023-03-02T19:26:34.911Z,7.80
2023-03-02T19:29:01.996Z,7.80
2023-03-02T19:31:30.395Z,7.80
2023-03-02T19:33:57.811Z,7.80
2023-03-02T19:36:24.822Z,7.80
2023-03-02T19:38:51.832Z,7.80
2023-03-02T19:41:20.431Z,7.80
2023-03-02T19:43:47.717Z,7.80
2023-03-02T19:46:16.779Z,7.80
2023-03-02T19:48:43.915Z,7.70
2023-03-02T19:51:12.206Z,7.80
2023-03-02T19:53:40.270Z,7.70
2023-03-02T19:56:11.773Z,7.70
2023-03-02T19:58:47.608Z,7.70
2023-03-02T20:01:17.146Z,7.60
2023-03-02T20:03:44.355Z,7.70
2023-03-02T20:06:11.265Z,7.70
2023-03-02T20:08:38.321Z,7.70
2023-03-02T20:11:05.310Z,7.70
2023-03-02T20:13:33.917Z,7.70
2023-03-02T20:16:01.139Z,7.70
2023-03-02T20:18:28.248Z,7.70
2023-03-02T20:20:55.210Z,7.70
2023-03-02T20:23:22.512Z,7.70
2023-03-02T20:25:49.395Z,7.70
2023-03-02T20:28:19.459Z,7.70
2023-03-02T20:30:51.623Z,7.70
2023-03-02T20:33:22.236Z,7.80
2023-03-02T20:35:49.654Z,7.70
2023-03-02T20:38:21.261Z,7.80
2023-03-02T20:40:48.427Z,7.80
2023-03-02T20:43:15.441Z,7.70
2023-03-02T20:45:42.776Z,7.70
2023-03-02T20:48:09.994Z,7.70
2023-03-02T20:50:38.081Z,7.70
2023-03-02T20:53:09.184Z,7.70
2023-03-02T20:55:36.545Z,7.70
2023-03-02T20:58:05.380Z,7.70
2023-03-02T21:00:34.318Z,7.80
2023-03-02T21:03:01.390Z,7.80
2023-03-02T21:05:29.794Z,7.80
2023-03-02T21:07:57.368Z,7.80
2023-03-02T21:10:30.930Z,7.80
2023-03-02T21:12:58.063Z,7.70
2023-03-02T21:15:27.154Z,7.70
2023-03-02T21:17:55.816Z,7.70
2023-03-02T21:20:24.391Z,7.80
2023-03-02T21:22:51.403Z,7.80
2023-03-02T21:25:18.602Z,7.70
2023-03-02T21:27:45.653Z,7.80
2023-03-02T21:30:22.493Z,7.90
2023-03-02T21:32:49.772Z,7.70
2023-03-02T21:35:20.073Z,7.70
2023-03-02T21:37:49.160Z,7.70
2023-03-02T21:40:20.538Z,7.70
2023-03-02T21:42:47.723Z,7.70
2023-03-02T21:45:14.756Z,7.70
2023-03-02T21:47:42.635Z,8.00
2023-03-02T21:50:14.724Z,7.70
2023-03-02T21:52:41.567Z,7.70
2023-03-02T21:55:09.103Z,8.00
2023-03-02T21:57:36.017Z,7.70
2023-03-02T22:00:05.301Z,7.70
2023-03-02T22:02:32.652Z,7.60
2023-03-02T22:04:59.592Z,7.60
2023-03-02T22:07:26.615Z,7.60
2023-03-02T22:09:53.661Z,7.60
2023-03-02T22:12:23.644Z,7.60
2023-03-02T22:14:51.627Z,7.60
2023-03-02T22:17:21.589Z,7.60
2023-03-02T22:19:52.450Z,7.60
2023-03-02T22:22:24.314Z,7.60
2023-03-02T22:24:52.266Z,7.60
2023-03-02T22:27:23.617Z,7.60
2023-03-02T22:29:53.085Z,7.60
2023-03-02T22:32:23.153Z,7.60
2023-03-02T22:34:53.443Z,7.50
2023-03-02T22:37:23.703Z,7.50
2023-03-02T22:39:54.769Z,7.50
2023-03-02T22:42:24.133Z,7.50
2023-03-02T22:45:06.521Z,7.50
2023-03-02T22:47:33.446Z,7.50
2023-03-02T22:50:14.204Z,7.50
2023-03-02T22:52:43.917Z,7.50
2023-03-02T22:55:29.583Z,7.50
2023-03-02T22:57:56.550Z,7.50
2023-03-02T23:00:35.257Z,7.40
2023-03-02T23:03:02.200Z,7.40
2023-03-02T23:05:34.634Z,7.60
2023-03-02T23:08:19.893Z,7.60
2023-03-02T23:10:48.110Z,7.60
2023-03-02T23:13:18.948Z,7.40
2023-03-02T23:15:47.080Z,7.40
2023-03-02T23:18:28.798Z,7.40
2023-03-02T23:20:56.225Z,7.40
2023-03-02T23:23:24.624Z,7.40
2023-03-02T23:25:51.546Z,7.40
2023-03-02T23:28:18.404Z,7.40
2023-03-02T23:30:45.432Z,7.40
2023-03-02T23:33:12.310Z,7.40
2023-03-02T23:35:39.896Z,7.40
2023-03-02T23:38:06.895Z,7.40
2023-03-02T23:40:33.885Z,7.40
2023-03-02T23:43:00.846Z,7.40
2023-03-02T23:45:27.887Z,7.40
2023-03-02T23:47:54.823Z,7.40
2023-03-02T23:50:21.746Z,7.30
2023-03-02T23:52:49.234Z,7.40
2023-03-02T23:55:16.415Z,7.30
2023-03-02T23:57:43.437Z,7.40
